Time;durP1;ratioP1;P1;durP2;ratioP2;P2;SDS_P1;SDS_P2;PMS_P1;PMS_P2;Temp;Humidity;BMP_temperature;BMP_pressure;BME280_temperature;BME280_humidity;BME280_pressure;Samples;Min_cycle;Max_cycle;Signal;HPM_P1;HPM_P2
2023/05/25 00:00:30;;;;;;;;;;;18.10;99.90;;;;;;4842216;29;19936;-76
2023/05/25 00:02:58;;;;;;;;;;;18.10;99.90;;;;;;4824395;29;19943;-76
2023/05/25 00:05:26;;;;;;;;;;;18.10;99.90;;;;;;4821865;29;20419;-76
2023/05/25 00:07:54;;;;;;;;;;;18.10;99.90;;;;;;4826610;29;20324;-76
2023/05/25 00:10:21;;;;;;;;;;;18.10;99.90;;;;;;4831124;29;20025;-76
2023/05/25 00:12:50;;;;;;;;;;;18.10;99.90;;;;;;4846704;29;19993;-76
2023/05/25 00:15:17;;;;;;;;;;;18.10;99.90;;;;;;4833006;29;19936;-76
2023/05/25 00:17:47;;;;;;;;;;;18.10;99.90;;;;;;4829170;29;21928;-76
2023/05/25 00:20:15;;;;;;;;;;;18.10;99.90;;;;;;4829159;29;20031;-76
2023/05/25 00:22:44;;;;;;;;;;;18.10;99.90;;;;;;4837052;29;19936;-76
2023/05/25 00:25:12;;;;;;;;;;;18.00;99.90;;;;;;4838893;29;20452;-76
2023/05/25 00:27:39;;;;;;;;;;;18.00;99.90;;;;;;4815802;29;19932;-76
2023/05/25 00:30:06;;;;;;;;;;;18.10;99.90;;;;;;4840962;29;19936;-76
2023/05/25 00:32:33;;;;;;;;;;;18.20;99.90;;;;;;4817717;29;19991;-76
2023/05/25 00:35:00;;;;;;;;;;;18.30;99.90;;;;;;4825959;29;19935;-76
2023/05/25 00:37:27;;;;;;;;;;;18.40;99.90;;;;;;4832044;29;19937;-76
2023/05/25 00:39:54;;;;;;;;;;;18.40;99.90;;;;;;4831427;29;19932;-75
2023/05/25 00:42:22;;;;;;;;;;;18.40;99.90;;;;;;4827918;29;19932;-75
2023/05/25 00:44:49;;;;;;;;;;;18.40;99.90;;;;;;4839786;29;20099;-76
2023/05/25 00:47:16;;;;;;;;;;;18.20;99.90;;;;;;4844837;29;19929;-76
2023/05/25 00:49:45;;;;;;;;;;;18.30;99.90;;;;;;4830522;29;20388;-76
2023/05/25 00:52:12;;;;;;;;;;;18.30;99.90;;;;;;4830099;29;19932;-76
2023/05/25 00:54:39;;;;;;;;;;;18.40;99.90;;;;;;4830056;29;19983;-76
2023/05/25 00:57:06;;;;;;;;;;;18.50;99.90;;;;;;4834712;29;20024;-76
2023/05/25 00:59:41;;;;;;;;;;;18.50;99.90;;;;;;4841647;29;19928;-75
2023/05/25 01:02:09;;;;;;;;;;;18.50;99.90;;;;;;4841482;29;20308;-76
2023/05/25 01:04:43;;;;;;;;;;;18.40;99.90;;;;;;4837945;29;19960;-76
2023/05/25 01:07:16;;;;;;;;;;;18.30;99.90;;;;;;4840125;29;19928;-75
2023/05/25 01:09:44;;;;;;;;;;;18.30;99.90;;;;;;4823535;29;19960;-76
2023/05/25 01:12:13;;;;;;;;;;;18.30;99.90;;;;;;4831808;29;19984;-76
2023/05/25 01:14:41;;;;;;;;;;;18.10;99.90;;;;;;4833294;29;20027;-76
2023/05/25 01:17:10;;;;;;;;;;;18.20;99.90;;;;;;4845555;29;19967;-76
2023/05/25 01:19:39;;;;;;;;;;;18.40;99.90;;;;;;4817084;29;20027;-75
2023/05/25 01:22:11;;;;;;;;;;;18.30;99.90;;;;;;4830093;29;19964;-76
2023/05/25 01:24:39;;;;;;;;;;;18.30;99.90;;;;;;4830374;29;20071;-76
2023/05/25 01:27:31;;;;;;;;;;;18.40;99.90;;;;;;4833648;29;22732;-76
2023/05/25 01:29:59;;;;;;;;;;;18.40;99.90;;;;;;4842150;29;20008;-76
2023/05/25 01:32:26;;;;;;;;;;;18.40;99.90;;;;;;4812324;29;19936;-76
2023/05/25 01:34:55;;;;;;;;;;;18.40;99.90;;;;;;4840211;29;19936;-75
2023/05/25 01:37:25;;;;;;;;;;;18.40;99.90;;;;;;4834224;29;19935;-76
2023/05/25 01:39:52;;;;;;;;;;;18.50;99.90;;;;;;4834106;29;19932;-75
2023/05/25 01:42:19;;;;;;;;;;;18.40;99.90;;;;;;4823284;29;19940;-76
2023/05/25 01:44:47;;;;;;;;;;;18.40;99.90;;;;;;4820505;29;19932;-76
2023/05/25 01:47:32;;;;;;;;;;;18.10;99.90;;;;;;4825051;29;22738;-76
2023/05/25 01:50:00;;;;;;;;;;;18.10;99.90;;;;;;4835237;29;19967;-76
2023/05/25 01:52:40;;;;;;;;;;;18.00;99.90;;;;;;4827697;29;19937;-75
2023/05/25 01:55:11;;;;;;;;;;;18.00;99.90;;;;;;4833051;29;19936;-76
2023/05/25 01:57:41;;;;;;;;;;;17.80;99.90;;;;;;4830385;29;19936;-76
2023/05/25 02:00:09;;;;;;;;;;;17.90;99.90;;;;;;4836949;29;19936;-76
2023/05/25 02:02:42;;;;;;;;;;;17.90;99.90;;;;;;4847412;29;19936;-76
2023/05/25 02:05:10;;;;;;;;;;;17.90;99.90;;;;;;4835539;29;20364;-75
2023/05/25 02:07:37;;;;;;;;;;;18.00;99.90;;;;;;4834034;29;19928;-75
2023/05/25 02:10:05;;;;;;;;;;;18.00;99.90;;;;;;4832514;29;19929;-75
2023/05/25 02:12:32;;;;;;;;;;;18.00;99.90;;;;;;4828397;29;19971;-76
2023/05/25 02:14:59;;;;;;;;;;;18.00;99.90;;;;;;4826890;29;19936;-76
2023/05/25 02:17:26;;;;;;;;;;;18.00;99.90;;;;;;4826178;29;19936;-76
2023/05/25 02:19:53;;;;;;;;;;;18.00;99.90;;;;;;4824558;29;20389;-76
2023/05/25 02:22:21;;;;;;;;;;;18.00;99.90;;;;;;4831586;29;19947;-76
2023/05/25 02:24:48;;;;;;;;;;;18.00;99.90;;;;;;4835180;29;19936;-76
2023/05/25 02:27:15;;;;;;;;;;;17.90;99.90;;;;;;4845281;29;19928;-76
2023/05/25 02:29:42;;;;;;;;;;;17.90;99.90;;;;;;4819090;29;19984;-76
2023/05/25 02:32:09;;;;;;;;;;;17.90;99.90;;;;;;4834679;29;19986;-76
2023/05/25 02:34:36;;;;;;;;;;;17.90;99.90;;;;;;4819553;29;19932;-76
2023/05/25 02:37:05;;;;;;;;;;;17.90;99.90;;;;;;4820395;29;20387;-76
2023/05/25 02:39:32;;;;;;;;;;;17.90;99.90;;;;;;4833657;29;19978;-76
2023/05/25 02:42:00;;;;;;;;;;;17.90;99.90;;;;;;4820018;29;19943;-76
2023/05/25 02:44:27;;;;;;;;;;;17.80;99.90;;;;;;4833724;29;19935;-76
2023/05/25 02:46:54;;;;;;;;;;;17.80;99.90;;;;;;4808244;29;20031;-76
2023/05/25 02:49:22;;;;;;;;;;;17.80;99.90;;;;;;4837124;29;19936;-76
2023/05/25 02:51:49;;;;;;;;;;;17.80;99.90;;;;;;4824095;29;20468;-76
2023/05/25 02:54:16;;;;;;;;;;;17.70;99.90;;;;;;4822440;29;19936;-76
2023/05/25 02:56:44;;;;;;;;;;;17.70;99.90;;;;;;4838129;29;19944;-76
2023/05/25 02:59:13;;;;;;;;;;;17.70;99.90;;;;;;4817178;29;19928;-76
2023/05/25 03:01:40;;;;;;;;;;;17.70;99.90;;;;;;4822611;29;20292;-76
2023/05/25 03:04:08;;;;;;;;;;;17.70;99.90;;;;;;4843985;29;19929;-76
2023/05/25 03:06:36;;;;;;;;;;;17.70;99.90;;;;;;4834412;29;21032;-76
2023/05/25 03:09:11;;;;;;;;;;;17.70;99.90;;;;;;4817253;29;22586;-76
2023/05/25 03:11:39;;;;;;;;;;;17.70;99.90;;;;;;4830993;29;20353;-76
2023/05/25 03:14:09;;;;;;;;;;;17.60;99.90;;;;;;4821466;29;19931;-76
2023/05/25 03:16:37;;;;;;;;;;;17.60;99.90;;;;;;4844164;29;19928;-76
2023/05/25 03:19:06;;;;;;;;;;;17.60;99.90;;;;;;4834524;29;19932;-76
2023/05/25 03:21:35;;;;;;;;;;;17.70;99.90;;;;;;4820062;29;19977;-76
2023/05/25 03:24:03;;;;;;;;;;;17.70;99.90;;;;;;4837293;29;19939;-76
2023/05/25 03:26:31;;;;;;;;;;;17.50;99.90;;;;;;4835187;29;19984;-76
2023/05/25 03:28:59;;;;;;;;;;;17.40;99.90;;;;;;4826893;29;20027;-76
2023/05/25 03:31:26;;;;;;;;;;;17.50;99.90;;;;;;4831918;29;19936;-75
2023/05/25 03:33:53;;;;;;;;;;;17.60;99.90;;;;;;4833015;29;19928;-75
2023/05/25 03:36:21;;;;;;;;;;;17.60;99.90;;;;;;4842954;29;19975;-75
2023/05/25 03:38:48;;;;;;;;;;;17.50;99.90;;;;;;4829152;29;19939;-75
2023/05/25 03:41:15;;;;;;;;;;;17.50;99.90;;;;;;4820976;29;19936;-76
2023/05/25 03:43:42;;;;;;;;;;;17.50;99.90;;;;;;4841100;29;20388;-76
2023/05/25 03:46:10;;;;;;;;;;;17.50;99.90;;;;;;4834159;29;19960;-76
2023/05/25 03:48:37;;;;;;;;;;;17.50;99.90;;;;;;4815454;29;20407;-76
2023/05/25 03:51:04;;;;;;;;;;;17.50;99.90;;;;;;4819983;29;19936;-76
2023/05/25 03:53:31;;;;;;;;;;;17.50;99.90;;;;;;4819552;29;19935;-76
2023/05/25 03:55:58;;;;;;;;;;;17.50;99.90;;;;;;4842372;29;19935;-75
2023/05/25 03:58:25;;;;;;;;;;;17.50;99.90;;;;;;4831989;29;19940;-75
2023/05/25 04:00:53;;;;;;;;;;;17.50;99.90;;;;;;4828406;29;19981;-75
2023/05/25 04:03:20;;;;;;;;;;;17.60;99.90;;;;;;4833232;29;20001;-76
2023/05/25 04:05:48;;;;;;;;;;;17.70;99.90;;;;;;4834894;29;19943;-75
2023/05/25 04:08:18;;;;;;;;;;;17.70;99.90;;;;;;4839915;29;19932;-76
2023/05/25 04:10:46;;;;;;;;;;;17.70;99.90;;;;;;4817789;29;20612;-76
2023/05/25 04:13:13;;;;;;;;;;;17.70;99.90;;;;;;4831451;29;19929;-75
2023/05/25 04:15:40;;;;;;;;;;;17.70;99.90;;;;;;4846250;29;19983;-75
2023/05/25 04:18:27;;;;;;;;;;;17.70;99.90;;;;;;4835675;29;20315;-75
2023/05/25 04:20:58;;;;;;;;;;;17.80;99.90;;;;;;4825379;29;20905;-75
2023/05/25 04:23:25;;;;;;;;;;;17.80;99.90;;;;;;4829650;29;19959;-75
2023/05/25 04:25:53;;;;;;;;;;;17.80;99.90;;;;;;4832657;29;20407;-76
2023/05/25 04:28:21;;;;;;;;;;;17.80;99.90;;;;;;4826609;29;19936;-75
2023/05/25 04:30:55;;;;;;;;;;;17.80;99.90;;;;;;4833552;29;19956;-75
2023/05/25 04:33:41;;;;;;;;;;;17.90;99.90;;;;;;4830832;29;20419;-76
2023/05/25 04:36:21;;;;;;;;;;;17.90;99.90;;;;;;4829904;29;19928;-75
2023/05/25 04:38:53;;;;;;;;;;;17.90;99.90;;;;;;4809050;29;19976;-75
2023/05/25 04:41:21;;;;;;;;;;;17.80;99.90;;;;;;4830972;29;19932;-75
2023/05/25 04:43:52;;;;;;;;;;;17.90;99.90;;;;;;4824350;29;19937;-76
2023/05/25 04:46:39;;;;;;;;;;;17.90;99.90;;;;;;4839302;29;20026;-76
2023/05/25 04:49:12;;;;;;;;;;;17.90;99.90;;;;;;4817732;29;20381;-76
2023/05/25 04:51:39;;;;;;;;;;;17.90;99.90;;;;;;4833803;29;19928;-75
2023/05/25 04:54:06;;;;;;;;;;;17.90;99.90;;;;;;4819578;29;19932;-76
2023/05/25 04:56:33;;;;;;;;;;;17.90;99.90;;;;;;4817292;29;19932;-76
2023/05/25 04:59:03;;;;;;;;;;;18.10;99.90;;;;;;4834192;29;19942;-76
2023/05/25 05:01:33;;;;;;;;;;;18.20;99.90;;;;;;4831576;29;20039;-75
2023/05/25 05:04:01;;;;;;;;;;;18.30;99.90;;;;;;4832235;29;19944;-77
2023/05/25 05:06:29;;;;;;;;;;;18.30;99.90;;;;;;4812037;29;19928;-76
2023/05/25 05:08:56;;;;;;;;;;;18.30;99.90;;;;;;4830272;29;19936;-75
2023/05/25 05:11:23;;;;;;;;;;;18.50;99.90;;;;;;4834307;29;19944;-76
2023/05/25 05:13:52;;;;;;;;;;;18.70;99.90;;;;;;4820960;29;19955;-76
2023/05/25 05:16:19;;;;;;;;;;;18.80;99.90;;;;;;4831867;29;19928;-76
2023/05/25 05:18:47;;;;;;;;;;;18.70;99.90;;;;;;4829030;29;22577;-76
2023/05/25 05:21:14;;;;;;;;;;;18.90;99.90;;;;;;4828788;29;22626;-75
2023/05/25 05:23:41;;;;;;;;;;;19.10;99.90;;;;;;4841052;29;20099;-76
2023/05/25 05:26:10;;;;;;;;;;;19.00;99.90;;;;;;4836269;29;19933;-76
2023/05/25 05:28:37;;;;;;;;;;;19.00;99.90;;;;;;4833272;29;19929;-76
2023/05/25 05:31:06;;;;;;;;;;;19.20;99.90;;;;;;4830947;29;19964;-77
2023/05/25 05:33:34;;;;;;;;;;;19.10;99.90;;;;;;4827950;29;19943;-75
2023/05/25 05:36:02;;;;;;;;;;;19.40;99.90;;;;;;4840034;29;20010;-76
2023/05/25 05:38:30;;;;;;;;;;;19.40;99.90;;;;;;4844996;29;19944;-76
2023/05/25 05:40:57;;;;;;;;;;;19.20;99.90;;;;;;4798899;29;19928;-79
2023/05/25 05:43:24;;;;;;;;;;;19.30;99.90;;;;;;4825167;29;19940;-77
2023/05/25 05:45:51;;;;;;;;;;;19.30;99.90;;;;;;4830962;29;19932;-77
2023/05/25 05:48:19;;;;;;;;;;;19.50;99.90;;;;;;4825713;29;19936;-76
2023/05/25 05:50:46;;;;;;;;;;;19.80;99.90;;;;;;4842530;29;19928;-76
2023/05/25 05:53:14;;;;;;;;;;;19.80;99.90;;;;;;4837563;29;19936;-76
2023/05/25 05:55:42;;;;;;;;;;;19.90;99.90;;;;;;4802650;29;19943;-76
2023/05/25 05:58:09;;;;;;;;;;;20.00;99.90;;;;;;4791159;29;19936;-76
2023/05/25 06:00:36;;;;;;;;;;;20.10;99.90;;;;;;4804297;29;19960;-76
2023/05/25 06:03:05;;;;;;;;;;;20.00;99.90;;;;;;4796817;29;19959;-79
2023/05/25 06:05:33;;;;;;;;;;;20.10;99.90;;;;;;4774232;29;19938;-76
2023/05/25 06:08:00;;;;;;;;;;;20.20;99.90;;;;;;4783928;29;20711;-75
2023/05/25 06:10:27;;;;;;;;;;;20.50;99.90;;;;;;4787356;29;21158;-76
2023/05/25 06:12:54;;;;;;;;;;;20.60;99.90;;;;;;4773176;29;19983;-76
2023/05/25 06:15:21;;;;;;;;;;;20.60;99.90;;;;;;4785377;29;19937;-76
2023/05/25 06:17:50;;;;;;;;;;;20.70;99.90;;;;;;4803809;29;19936;-76
2023/05/25 06:20:17;;;;;;;;;;;20.90;99.90;;;;;;4774996;29;20415;-75
2023/05/25 06:22:45;;;;;;;;;;;20.80;99.50;;;;;;4780895;29;20084;-75
2023/05/25 06:25:12;;;;;;;;;;;21.00;99.20;;;;;;4793138;29;19987;-75
2023/05/25 06:27:40;;;;;;;;;;;20.90;98.40;;;;;;4770901;29;20026;-76
2023/05/25 06:30:07;;;;;;;;;;;21.00;98.30;;;;;;4790291;29;20027;-76
2023/05/25 06:32:35;;;;;;;;;;;20.70;98.20;;;;;;4794701;29;20680;-76
2023/05/25 06:35:03;;;;;;;;;;;20.20;99.40;;;;;;4802413;29;19937;-77
2023/05/25 06:37:36;;;;;;;;;;;20.30;99.40;;;;;;4779814;29;19943;-76
2023/05/25 06:40:08;;;;;;;;;;;20.60;99.30;;;;;;4808758;29;20727;-76
2023/05/25 06:42:36;;;;;;;;;;;20.50;99.90;;;;;;4811609;29;19936;-76
2023/05/25 06:45:04;;;;;;;;;;;21.00;98.40;;;;;;4777023;29;19936;-76
2023/05/25 06:47:31;;;;;;;;;;;21.10;97.10;;;;;;4780120;29;19963;-76
2023/05/25 06:49:58;;;;;;;;;;;21.30;98.10;;;;;;4775932;29;19936;-76
2023/05/25 06:52:28;;;;;;;;;;;20.90;96.90;;;;;;4789960;29;20293;-76
2023/05/25 06:54:55;;;;;;;;;;;21.20;97.50;;;;;;4794163;29;20423;-75
2023/05/25 06:57:23;;;;;;;;;;;21.00;96.70;;;;;;4783953;29;20832;-76
2023/05/25 06:59:50;;;;;;;;;;;20.80;97.40;;;;;;4793552;29;20392;-76
2023/05/25 07:02:18;;;;;;;;;;;20.60;97.70;;;;;;4792583;29;19979;-77
2023/05/25 07:04:45;;;;;;;;;;;20.50;97.70;;;;;;4775637;29;21166;-76
2023/05/25 07:07:13;;;;;;;;;;;20.40;98.50;;;;;;4797348;29;19936;-77
2023/05/25 07:09:40;;;;;;;;;;;20.50;98.90;;;;;;4770914;29;20332;-75
2023/05/25 07:12:08;;;;;;;;;;;21.00;98.40;;;;;;4791947;29;19929;-75
2023/05/25 07:14:36;;;;;;;;;;;21.50;96.70;;;;;;4793597;29;19937;-76
2023/05/25 07:17:03;;;;;;;;;;;21.30;95.40;;;;;;4785442;29;20522;-76
2023/05/25 07:19:30;;;;;;;;;;;21.10;96.50;;;;;;4785831;29;20365;-78
2023/05/25 07:21:57;;;;;;;;;;;21.00;96.70;;;;;;4787846;29;19960;-76
2023/05/25 07:24:24;;;;;;;;;;;20.70;97.10;;;;;;4768929;29;19975;-75
2023/05/25 07:26:51;;;;;;;;;;;20.80;98.30;;;;;;4787742;29;20767;-76
2023/05/25 07:29:18;;;;;;;;;;;20.70;97.50;;;;;;4786478;29;19936;-76
2023/05/25 07:31:45;;;;;;;;;;;20.50;97.30;;;;;;4794902;29;19937;-76
2023/05/25 07:34:12;;;;;;;;;;;20.50;98.10;;;;;;4777763;29;20119;-76
2023/05/25 07:36:39;;;;;;;;;;;21.00;98.20;;;;;;4795390;29;20580;-75
2023/05/25 07:39:07;;;;;;;;;;;21.60;96.70;;;;;;4792625;29;19936;-76
2023/05/25 07:41:34;;;;;;;;;;;21.80;94.80;;;;;;4778824;29;19936;-76
2023/05/25 07:44:01;;;;;;;;;;;22.00;93.30;;;;;;4787047;29;20278;-76
2023/05/25 07:46:28;;;;;;;;;;;22.30;94.20;;;;;;4774391;29;21011;-77
2023/05/25 07:48:57;;;;;;;;;;;22.30;92.50;;;;;;4801243;29;19936;-76
2023/05/25 07:51:27;;;;;;;;;;;22.10;93.50;;;;;;4793160;29;22429;-76
2023/05/25 07:53:55;;;;;;;;;;;22.00;93.50;;;;;;4794748;29;20964;-77
2023/05/25 07:56:23;;;;;;;;;;;21.90;93.60;;;;;;4789428;29;19937;-76
2023/05/25 07:58:50;;;;;;;;;;;21.70;93.30;;;;;;4798296;29;20618;-78
2023/05/25 08:01:17;;;;;;;;;;;21.80;92.80;;;;;;4790734;29;19936;-77
2023/05/25 08:03:44;;;;;;;;;;;21.80;92.60;;;;;;4779830;29;20431;-76
2023/05/25 08:06:16;;;;;;;;;;;21.80;92.90;;;;;;4776541;29;22369;-76
2023/05/25 08:08:45;;;;;;;;;;;21.70;92.40;;;;;;4777057;29;20414;-76
2023/05/25 08:11:13;;;;;;;;;;;21.90;92.70;;;;;;4786238;29;19937;-76
2023/05/25 08:13:40;;;;;;;;;;;22.20;93.40;;;;;;4771079;29;20403;-77
2023/05/25 08:16:08;;;;;;;;;;;22.20;92.40;;;;;;4780026;29;19951;-76
2023/05/25 08:18:35;;;;;;;;;;;22.40;91.90;;;;;;4797095;29;20837;-76
2023/05/25 08:21:02;;;;;;;;;;;22.40;91.40;;;;;;4811614;29;20515;-76
2023/05/25 08:23:29;;;;;;;;;;;22.00;91.30;;;;;;4819278;29;20044;-76
2023/05/25 08:25:56;;;;;;;;;;;21.80;91.60;;;;;;4790011;29;19945;-77
2023/05/25 08:28:23;;;;;;;;;;;21.90;92.90;;;;;;4782943;29;20701;-77
2023/05/25 08:30:50;;;;;;;;;;;21.70;92.60;;;;;;4815429;29;20701;-78
2023/05/25 08:33:17;;;;;;;;;;;21.90;92.30;;;;;;4790226;29;19971;-79
2023/05/25 08:35:44;;;;;;;;;;;22.00;92.80;;;;;;4786310;29;22252;-77
2023/05/25 08:38:11;;;;;;;;;;;21.80;93.10;;;;;;4791453;29;19943;-76
2023/05/25 08:40:40;;;;;;;;;;;21.70;93.10;;;;;;4781266;29;19928;-76
2023/05/25 08:43:07;;;;;;;;;;;21.90;92.20;;;;;;4820085;29;19929;-77
2023/05/25 08:45:34;;;;;;;;;;;21.70;90.60;;;;;;4826933;29;20844;-76
2023/05/25 08:48:09;;;;;;;;;;;22.00;90.20;;;;;;4827510;29;19970;-76
2023/05/25 08:50:37;;;;;;;;;;;22.50;90.00;;;;;;4774686;29;19936;-77
2023/05/25 08:53:07;;;;;;;;;;;22.80;88.00;;;;;;4811701;29;20408;-76
2023/05/25 08:55:35;;;;;;;;;;;22.90;90.10;;;;;;4804893;29;19996;-77
2023/05/25 08:58:08;;;;;;;;;;;22.30;87.00;;;;;;4798846;29;19936;-78
2023/05/25 09:00:39;;;;;;;;;;;21.90;90.00;;;;;;4768050;29;19936;-78
2023/05/25 09:03:12;;;;;;;;;;;21.70;90.30;;;;;;4802610;29;20732;-77
2023/05/25 09:05:40;;;;;;;;;;;21.90;90.50;;;;;;4798053;29;19928;-76
2023/05/25 09:08:09;;;;;;;;;;;22.40;87.20;;;;;;4786879;29;19938;-77
2023/05/25 09:10:37;;;;;;;;;;;22.80;87.40;;;;;;4785877;29;19988;-77
2023/05/25 09:13:04;;;;;;;;;;;22.70;87.30;;;;;;4803699;29;19932;-79
2023/05/25 09:15:47;;;;;;;;;;;22.40;88.20;;;;;;4784825;29;19936;-76
2023/05/25 09:18:14;;;;;;;;;;;22.60;89.70;;;;;;4770166;29;20585;-75
2023/05/25 09:20:41;;;;;;;;;;;22.80;89.30;;;;;;4784730;29;21001;-76
2023/05/25 09:23:13;;;;;;;;;;;22.80;87.50;;;;;;4780353;29;19948;-76
2023/05/25 09:25:40;;;;;;;;;;;22.50;86.50;;;;;;4804892;29;19979;-76
2023/05/25 09:28:07;;;;;;;;;;;22.30;88.10;;;;;;4784408;29;19935;-76
2023/05/25 09:30:52;;;;;;;;;;;22.20;87.90;;;;;;4779323;29;21950;-78
2023/05/25 09:33:20;;;;;;;;;;;22.30;88.20;;;;;;4800482;29;20397;-77
2023/05/25 09:35:47;;;;;;;;;;;22.70;86.50;;;;;;4790213;29;20143;-78
2023/05/25 09:38:15;;;;;;;;;;;23.20;83.60;;;;;;4778826;29;20655;-76
2023/05/25 09:40:43;;;;;;;;;;;22.80;83.60;;;;;;4784276;29;19959;-79
2023/05/25 09:43:11;;;;;;;;;;;22.50;84.80;;;;;;4773992;29;20050;-76
2023/05/25 09:45:48;;;;;;;;;;;22.50;85.20;;;;;;4791042;29;20620;-78
2023/05/25 09:48:16;;;;;;;;;;;22.50;85.60;;;;;;4783294;29;20604;-77
2023/05/25 09:50:43;;;;;;;;;;;22.50;86.80;;;;;;4778427;29;20299;-79
2023/05/25 09:53:13;;;;;;;;;;;22.30;85.80;;;;;;4775606;29;19936;-78
2023/05/25 09:55:40;;;;;;;;;;;22.20;85.70;;;;;;4797422;29;19935;-76
2023/05/25 09:58:21;;;;;;;;;;;22.20;85.60;;;;;;4797982;29;19960;-77
2023/05/25 10:00:48;;;;;;;;;;;22.30;85.40;;;;;;4791955;29;19943;-76
2023/05/25 10:03:15;;;;;;;;;;;22.60;83.90;;;;;;4795422;29;19966;-77
2023/05/25 10:05:44;;;;;;;;;;;22.60;84.40;;;;;;4781935;29;20071;-77
2023/05/25 10:08:11;;;;;;;;;;;22.50;83.70;;;;;;4797125;29;19943;-76
2023/05/25 10:10:39;;;;;;;;;;;22.40;83.90;;;;;;4798437;29;19975;-76
2023/05/25 10:13:07;;;;;;;;;;;22.50;84.50;;;;;;4796142;29;19936;-76
2023/05/25 10:15:36;;;;;;;;;;;22.80;85.20;;;;;;4795012;29;19988;-78
2023/05/25 10:18:04;;;;;;;;;;;22.90;87.00;;;;;;4803786;29;20632;-76
2023/05/25 10:20:32;;;;;;;;;;;22.90;85.90;;;;;;4791255;29;19968;-76
2023/05/25 10:23:08;;;;;;;;;;;22.90;86.60;;;;;;4793405;29;22409;-76
2023/05/25 10:25:40;;;;;;;;;;;23.20;86.80;;;;;;4792405;29;19936;-77
2023/05/25 10:28:18;;;;;;;;;;;23.00;85.40;;;;;;4784109;29;19932;-76
2023/05/25 10:30:46;;;;;;;;;;;22.70;85.80;;;;;;4797328;29;20361;-76
2023/05/25 10:33:13;;;;;;;;;;;22.90;87.60;;;;;;4786566;29;19944;-79
2023/05/25 10:35:42;;;;;;;;;;;22.80;85.90;;;;;;4785089;29;19975;-77
2023/05/25 10:38:30;;;;;;;;;;;22.60;87.00;;;;;;4797771;29;20055;-77
2023/05/25 10:40:58;;;;;;;;;;;22.50;87.20;;;;;;4797430;29;20796;-77
2023/05/25 10:43:26;;;;;;;;;;;22.60;84.70;;;;;;4810532;29;19928;-76
2023/05/25 10:45:54;;;;;;;;;;;22.80;84.20;;;;;;4796787;29;20389;-76
2023/05/25 10:48:22;;;;;;;;;;;23.30;83.80;;;;;;4789440;29;19943;-77
2023/05/25 10:50:50;;;;;;;;;;;23.40;82.20;;;;;;4775290;29;19984;-78
2023/05/25 10:53:19;;;;;;;;;;;23.40;84.20;;;;;;4784693;29;19932;-79
2023/05/25 10:55:52;;;;;;;;;;;23.20;84.30;;;;;;4786219;29;20628;-77
2023/05/25 10:58:20;;;;;;;;;;;23.00;85.60;;;;;;4800620;29;19936;-77
2023/05/25 11:00:59;;;;;;;;;;;22.80;84.50;;;;;;4789712;29;20459;-79
2023/05/25 11:03:45;;;;;;;;;;;22.80;85.90;;;;;;4787683;29;19975;-78
2023/05/25 11:06:16;;;;;;;;;;;22.80;86.30;;;;;;4778777;29;19943;-77
2023/05/25 11:08:54;;;;;;;;;;;22.80;84.80;;;;;;4791345;29;20055;-76
2023/05/25 11:11:21;;;;;;;;;;;22.80;85.30;;;;;;4800500;29;19996;-76
2023/05/25 11:13:49;;;;;;;;;;;23.30;86.10;;;;;;4778297;29;20180;-76
2023/05/25 11:16:19;;;;;;;;;;;23.60;85.00;;;;;;4779918;29;19992;-76
2023/05/25 11:18:53;;;;;;;;;;;23.50;83.50;;;;;;4807623;29;20009;-78
2023/05/25 11:21:27;;;;;;;;;;;23.30;83.40;;;;;;4784965;29;19936;-79
2023/05/25 11:23:54;;;;;;;;;;;23.20;83.60;;;;;;4789792;29;19944;-79
2023/05/25 11:26:26;;;;;;;;;;;23.00;83.50;;;;;;4807424;29;19943;-77
2023/05/25 11:28:57;;;;;;;;;;;22.90;84.10;;;;;;4799476;29;20468;-77
2023/05/25 11:31:29;;;;;;;;;;;23.00;85.20;;;;;;4803101;29;20464;-76
2023/05/25 11:33:59;;;;;;;;;;;22.90;83.10;;;;;;4780613;29;20033;-76
2023/05/25 11:36:30;;;;;;;;;;;23.00;83.80;;;;;;4822755;29;19936;-75
2023/05/25 11:39:00;;;;;;;;;;;23.00;86.10;;;;;;4810786;29;19943;-76
2023/05/25 11:41:35;;;;;;;;;;;23.20;85.90;;;;;;4790173;29;19936;-75
2023/05/25 11:44:03;;;;;;;;;;;23.50;84.60;;;;;;4808335;29;20016;-76
2023/05/25 11:46:31;;;;;;;;;;;23.70;81.10;;;;;;4814493;29;19936;-75
2023/05/25 11:48:59;;;;;;;;;;;23.80;82.80;;;;;;4799287;29;19943;-78
2023/05/25 11:51:27;;;;;;;;;;;23.70;80.60;;;;;;4794624;29;20416;-77
2023/05/25 11:53:55;;;;;;;;;;;23.50;81.10;;;;;;4794384;29;19943;-76
2023/05/25 11:56:22;;;;;;;;;;;23.40;80.60;;;;;;4797246;29;20294;-76
2023/05/25 11:59:01;;;;;;;;;;;23.40;81.40;;;;;;4803283;29;19936;-78
2023/05/25 12:01:30;;;;;;;;;;;23.30;81.50;;;;;;4794922;29;20008;-75
2023/05/25 12:04:06;;;;;;;;;;;23.30;81.90;;;;;;4771861;29;20826;-76
2023/05/25 12:06:35;;;;;;;;;;;23.30;82.40;;;;;;4795503;29;19936;-79
2023/05/25 12:09:07;;;;;;;;;;;23.40;82.40;;;;;;4803897;29;20131;-77
2023/05/25 12:11:37;;;;;;;;;;;23.50;81.40;;;;;;4806734;29;20780;-77
2023/05/25 12:14:05;;;;;;;;;;;23.60;82.40;;;;;;4787483;29;20088;-76
2023/05/25 12:16:33;;;;;;;;;;;23.60;80.80;;;;;;4789288;29;19979;-76
2023/05/25 12:19:01;;;;;;;;;;;23.60;80.80;;;;;;4788752;29;19979;-77
2023/05/25 12:21:28;;;;;;;;;;;23.60;81.40;;;;;;4809964;29;20031;-76
2023/05/25 12:23:55;;;;;;;;;;;23.70;81.10;;;;;;4791469;29;19936;-76
2023/05/25 12:26:22;;;;;;;;;;;23.50;81.90;;;;;;4776600;29;20067;-76
2023/05/25 12:29:03;;;;;;;;;;;23.40;81.80;;;;;;4785188;29;20345;-76
2023/05/25 12:31:31;;;;;;;;;;;23.40;84.10;;;;;;4790736;29;19970;-76
2023/05/25 12:34:01;;;;;;;;;;;23.30;81.60;;;;;;4801799;29;19986;-76
2023/05/25 12:36:38;;;;;;;;;;;23.30;81.30;;;;;;4783496;29;20062;-77
2023/05/25 12:39:06;;;;;;;;;;;23.30;81.80;;;;;;4789435;29;19936;-76
2023/05/25 12:41:43;;;;;;;;;;;23.40;83.80;;;;;;4803514;29;19943;-76
2023/05/25 12:44:22;;;;;;;;;;;23.50;83.00;;;;;;4785007;29;19959;-77
2023/05/25 12:46:54;;;;;;;;;;;23.50;82.40;;;;;;4801877;29;19934;-78
2023/05/25 12:49:31;;;;;;;;;;;23.50;80.30;;;;;;4798953;29;19936;-77
2023/05/25 12:51:59;;;;;;;;;;;23.50;79.60;;;;;;4805836;29;21367;-77
2023/05/25 12:54:45;;;;;;;;;;;23.50;79.00;;;;;;4787660;29;19936;-77
2023/05/25 12:57:13;;;;;;;;;;;23.50;79.60;;;;;;4788421;29;19928;-77
2023/05/25 12:59:41;;;;;;;;;;;23.50;79.80;;;;;;4788314;29;20031;-78
2023/05/25 13:02:09;;;;;;;;;;;23.50;80.80;;;;;;4792434;29;20460;-77
2023/05/25 13:04:37;;;;;;;;;;;23.40;81.10;;;;;;4778465;29;19936;-76
2023/05/25 13:07:04;;;;;;;;;;;23.50;82.00;;;;;;4788752;29;22339;-76
2023/05/25 13:09:31;;;;;;;;;;;23.70;83.10;;;;;;4804609;29;19932;-77
2023/05/25 13:12:00;;;;;;;;;;;23.90;80.90;;;;;;4785935;29;20586;-76
2023/05/25 13:14:28;;;;;;;;;;;24.20;81.10;;;;;;4797160;29;20312;-77
2023/05/25 13:16:56;;;;;;;;;;;24.10;78.50;;;;;;4809044;29;19936;-79
2023/05/25 13:19:24;;;;;;;;;;;24.20;79.70;;;;;;4789289;29;19936;-77
2023/05/25 13:21:52;;;;;;;;;;;24.20;80.50;;;;;;4769579;29;19937;-79
2023/05/25 13:24:19;;;;;;;;;;;24.00;79.70;;;;;;4779904;29;20677;-78
2023/05/25 13:26:46;;;;;;;;;;;23.80;79.70;;;;;;4801778;29;20687;-78
2023/05/25 13:29:16;;;;;;;;;;;23.80;81.50;;;;;;4806382;29;19984;-78
2023/05/25 13:31:45;;;;;;;;;;;23.80;81.60;;;;;;4785972;29;19936;-78
2023/05/25 13:34:12;;;;;;;;;;;23.80;81.10;;;;;;4782761;29;19937;-77
2023/05/25 13:36:40;;;;;;;;;;;23.80;81.40;;;;;;4820122;29;20019;-78
2023/05/25 13:39:09;;;;;;;;;;;23.80;80.70;;;;;;4794672;29;19986;-76
2023/05/25 13:41:36;;;;;;;;;;;23.80;81.40;;;;;;4790022;29;19936;-76
2023/05/25 13:44:03;;;;;;;;;;;23.80;81.50;;;;;;4781768;29;20027;-76
2023/05/25 13:46:31;;;;;;;;;;;23.80;82.40;;;;;;4792809;29;20478;-76
2023/05/25 13:49:01;;;;;;;;;;;24.00;81.60;;;;;;4784736;29;19943;-76
2023/05/25 13:51:28;;;;;;;;;;;24.10;81.80;;;;;;4820090;29;20070;-78
2023/05/25 13:53:55;;;;;;;;;;;24.30;79.00;;;;;;4806378;29;20031;-77
2023/05/25 13:56:22;;;;;;;;;;;24.50;78.80;;;;;;4821928;29;20045;-76
2023/05/25 13:58:49;;;;;;;;;;;24.20;79.70;;;;;;4803593;29;22662;-76
2023/05/25 14:01:16;;;;;;;;;;;24.00;80.90;;;;;;4792621;29;20504;-76
2023/05/25 14:03:44;;;;;;;;;;;24.00;80.50;;;;;;4803364;29;19936;-78
2023/05/25 14:06:11;;;;;;;;;;;24.00;80.40;;;;;;4797472;29;20319;-75
2023/05/25 14:08:38;;;;;;;;;;;24.00;79.90;;;;;;4818281;29;19936;-75
2023/05/25 14:11:06;;;;;;;;;;;24.00;79.80;;;;;;4772597;29;20061;-76
2023/05/25 14:13:35;;;;;;;;;;;24.10;80.40;;;;;;4796884;29;19936;-75
2023/05/25 14:16:02;;;;;;;;;;;24.10;79.80;;;;;;4809553;29;20584;-75
2023/05/25 14:18:29;;;;;;;;;;;24.20;80.00;;;;;;4788004;29;19944;-76
2023/05/25 14:20:56;;;;;;;;;;;24.30;80.10;;;;;;4806353;29;19936;-76
2023/05/25 14:23:23;;;;;;;;;;;24.30;78.30;;;;;;4811883;29;20081;-78
2023/05/25 14:25:50;;;;;;;;;;;24.30;78.90;;;;;;4807807;29;22373;-77